createdAt,value
2023-03-07T00:00:34.525Z,99505.63
2023-03-07T00:06:13.959Z,99504.75
2023-03-07T00:11:21.739Z,99493.66
2023-03-07T00:16:28.804Z,99506.44
2023-03-07T00:21:36.765Z,99502.16
2023-03-07T00:26:43.640Z,99507.25
2023-03-07T00:31:51.643Z,99503.84
2023-03-07T00:36:59.370Z,99496.09
2023-03-07T00:42:05.898Z,99499.47
2023-03-07T00:47:12.878Z,99499.47
2023-03-07T00:52:21.335Z,99501.16
2023-03-07T00:57:27.980Z,99493.44
2023-03-07T01:02:34.659Z,99486.56
2023-03-07T01:07:43.027Z,99485.69
2023-03-07T01:12:50.437Z,99484.78
2023-03-07T01:17:57.372Z,99481.34
2023-03-07T01:23:06.474Z,99478.75
2023-03-07T01:28:16.161Z,99476.84
2023-03-07T01:33:22.570Z,99472.44
2023-03-07T01:38:34.451Z,99471.63
2023-03-07T01:43:44.256Z,99472.47
2023-03-07T01:48:59.986Z,99465.59
2023-03-07T01:54:13.764Z,99463.00
2023-03-07T01:59:30.744Z,99462.91
2023-03-07T02:04:45.440Z,99456.81
2023-03-07T02:09:55.232Z,99467.88
2023-03-07T02:15:01.861Z,99461.03
2023-03-07T02:20:31.948Z,99471.19
2023-03-07T02:25:51.361Z,99464.22
2023-03-07T02:31:02.612Z,99461.50
2023-03-07T02:36:17.727Z,99464.84
2023-03-07T02:41:36.364Z,99461.31
2023-03-07T02:46:50.925Z,99470.56
2023-03-07T02:52:00.867Z,99469.78
2023-03-07T02:57:08.670Z,99456.13
2023-03-07T03:02:17.142Z,99461.16
2023-03-07T03:07:24.626Z,99459.44
2023-03-07T03:12:31.362Z,99454.25
2023-03-07T03:17:40.563Z,99462.75
2023-03-07T03:22:47.220Z,99459.38
2023-03-07T03:27:53.536Z,99458.41
2023-03-07T03:33:01.245Z,99457.50
2023-03-07T03:38:08.728Z,99446.41
2023-03-07T03:43:15.362Z,99453.25
2023-03-07T03:48:23.756Z,99456.00
2023-03-07T03:53:30.666Z,99456.00
2023-03-07T03:58:39.767Z,99452.66
2023-03-07T04:03:51.604Z,99447.66
2023-03-07T04:08:58.646Z,99451.16
2023-03-07T04:14:05.734Z,99445.25
2023-03-07T04:19:14.387Z,99439.34
2023-03-07T04:24:22.490Z,99447.00
2023-03-07T04:29:31.133Z,99440.16
2023-03-07T04:34:45.018Z,99437.63
2023-03-07T04:39:51.792Z,99438.50
2023-03-07T04:44:58.655Z,99435.88
2023-03-07T04:50:09.276Z,99428.22
2023-03-07T04:55:17.213Z,99419.75
2023-03-07T05:00:24.910Z,99412.03
2023-03-07T05:05:35.070Z,99409.47
2023-03-07T05:10:43.717Z,99418.78
2023-03-07T05:15:54.129Z,99418.81
2023-03-07T05:21:03.560Z,99422.19
2023-03-07T05:26:10.207Z,99425.66
2023-03-07T05:31:18.559Z,99427.38
2023-03-07T05:36:27.593Z,99434.94
2023-03-07T05:41:34.515Z,99428.97
2023-03-07T05:46:41.604Z,99429.81
2023-03-07T05:51:49.837Z,99440.88
2023-03-07T05:56:56.237Z,99447.59
2023-03-07T06:02:02.712Z,99431.47
2023-03-07T06:07:10.489Z,99434.06
2023-03-07T06:12:17.167Z,99440.06
2023-03-07T06:17:23.796Z,99437.53
2023-03-07T06:22:32.447Z,99443.50
2023-03-07T06:27:41.768Z,99438.47
2023-03-07T06:32:48.198Z,99436.00
2023-03-07T06:37:56.024Z,99426.66
2023-03-07T06:43:02.560Z,99430.06
2023-03-07T06:48:09.122Z,99421.66
2023-03-07T06:53:17.292Z,99412.34
2023-03-07T06:58:23.702Z,99413.25
2023-03-07T07:03:30.970Z,99408.22
2023-03-07T07:08:39.136Z,99396.38
2023-03-07T07:13:46.229Z,99391.28
2023-03-07T07:18:56.491Z,99393.03
2023-03-07T07:24:05.080Z,99390.50
2023-03-07T07:29:12.931Z,99388.00
2023-03-07T07:34:20.337Z,99392.31
2023-03-07T07:39:28.811Z,99384.69
2023-03-07T07:44:35.312Z,99381.31
2023-03-07T07:49:47.739Z,99377.13
2023-03-07T07:54:55.982Z,99366.88
2023-03-07T08:00:04.854Z,99345.53
2023-03-07T08:05:19.858Z,99336.19
2023-03-07T08:10:29.096Z,99330.22
2023-03-07T08:15:35.729Z,99320.88
2023-03-07T08:20:42.796Z,99309.00
2023-03-07T08:25:51.884Z,99304.81
2023-03-07T08:30:59.187Z,99300.63
2023-03-07T08:36:06.581Z,99300.63
2023-03-07T08:41:14.591Z,99293.78
2023-03-07T08:46:20.836Z,99286.13
2023-03-07T08:51:27.182Z,99280.16
2023-03-07T08:56:35.123Z,99277.59
2023-03-07T09:01:41.523Z,99272.53
2023-03-07T09:06:47.916Z,99271.66
2023-03-07T09:11:55.914Z,99269.09
2023-03-07T09:17:03.090Z,99254.56
2023-03-07T09:22:09.524Z,99248.59
2023-03-07T09:27:17.448Z,99240.88
2023-03-07T09:32:23.878Z,99244.28
2023-03-07T09:37:30.177Z,99243.38
2023-03-07T09:42:48.673Z,99242.44
2023-03-07T09:48:38.975Z,99209.03
2023-03-07T09:53:48.771Z,99203.84
2023-03-07T09:59:20.443Z,99199.47
2023-03-07T10:04:37.048Z,99195.09
2023-03-07T10:09:43.828Z,99176.09
2023-03-07T10:15:13.459Z,99172.53
2023-03-07T10:20:31.417Z,99157.84
2023-03-07T10:25:50.312Z,99147.53
2023-03-07T10:31:12.995Z,99137.09
2023-03-07T10:36:23.781Z,99119.03
2023-03-07T10:41:30.612Z,99106.13
2023-03-07T10:46:46.935Z,99098.22
2023-03-07T10:52:04.930Z,99089.59
2023-03-07T10:57:14.750Z,99074.75
2023-03-07T11:02:35.833Z,99064.13
2023-03-07T11:07:43.569Z,99061.47
2023-03-07T11:12:50.940Z,99044.03
2023-03-07T11:17:58.928Z,99031.09
2023-03-07T11:23:23.767Z,99043.00
2023-03-07T11:28:34.121Z,99029.25
2023-03-07T11:34:00.343Z,99017.00
2023-03-07T11:39:18.333Z,99009.94
2023-03-07T11:44:36.410Z,98997.66
2023-03-07T11:50:04.174Z,98990.47
2023-03-07T11:55:27.363Z,98982.47
2023-03-07T12:00:38.351Z,98979.78
2023-03-07T12:06:10.192Z,98965.94
2023-03-07T12:11:51.625Z,98945.16
2023-03-07T12:17:09.068Z,98946.78
2023-03-07T12:22:29.400Z,98945.75
2023-03-07T12:27:44.036Z,98941.25
2023-03-07T12:32:53.269Z,98936.88
2023-03-07T12:38:12.521Z,98937.00
2023-03-07T12:43:25.219Z,98924.94
2023-03-07T12:48:42.531Z,98917.91
2023-03-07T12:53:57.104Z,98909.09
2023-03-07T12:59:13.376Z,98900.31
2023-03-07T13:04:24.617Z,98888.06
2023-03-07T13:09:33.749Z,98887.22
2023-03-07T13:14:41.909Z,98881.09
2023-03-07T13:19:56.451Z,98881.88
2023-03-07T13:25:49.153Z,98882.06
2023-03-07T13:31:30.651Z,98871.94
2023-03-07T13:36:39.296Z,98869.50
2023-03-07T13:41:52.470Z,98873.19
2023-03-07T13:47:05.473Z,98857.78
2023-03-07T13:52:46.602Z,98852.75
2023-03-07T13:57:57.447Z,98857.19
2023-03-07T14:03:04.410Z,98853.78
2023-03-07T14:08:15.701Z,98836.69
2023-03-07T14:13:54.758Z,98825.63
2023-03-07T14:19:13.303Z,98828.25
2023-03-07T14:24:52.023Z,98811.13
2023-03-07T14:29:59.897Z,98811.13
2023-03-07T14:35:07.101Z,98803.50
2023-03-07T14:40:33.599Z,98798.34
2023-03-07T14:45:46.580Z,98796.59
2023-03-07T14:50:53.878Z,98786.28
2023-03-07T14:56:01.358Z,98784.59
2023-03-07T15:01:16.914Z,98787.13
2023-03-07T15:06:28.210Z,98774.31
2023-03-07T15:11:40.777Z,98779.41
2023-03-07T15:16:53.105Z,98776.78
2023-03-07T15:22:02.299Z,98769.88
2023-03-07T15:27:10.966Z,98763.88
2023-03-07T15:32:36.867Z,98768.19
2023-03-07T15:37:56.329Z,98751.91
2023-03-07T15:43:28.679Z,98746.75
2023-03-07T15:48:49.753Z,98739.91
2023-03-07T15:54:00.053Z,98745.91
2023-03-07T15:59:19.152Z,98735.66
2023-03-07T16:04:43.245Z,98731.47
2023-03-07T16:09:50.616Z,98728.13
2023-03-07T16:15:05.632Z,98727.34
2023-03-07T16:20:19.724Z,98724.72
2023-03-07T16:25:31.724Z,98722.13
2023-03-07T16:30:40.413Z,98710.09
2023-03-07T16:35:51.427Z,98704.94
2023-03-07T16:40:59.891Z,98704.88
2023-03-07T16:46:13.327Z,98704.03
2023-03-07T16:51:26.721Z,98699.72
2023-03-07T16:56:40.366Z,98694.56
2023-03-07T17:01:52.134Z,98695.41
2023-03-07T17:07:05.066Z,98695.34
2023-03-07T17:12:13.360Z,98686.75
2023-03-07T17:17:30.758Z,98696.16
2023-03-07T17:22:39.999Z,98696.16
2023-03-07T17:27:53.462Z,98695.34
2023-03-07T17:33:04.639Z,98687.75
2023-03-07T17:38:13.914Z,98692.94
2023-03-07T17:43:22.557Z,98692.97
2023-03-07T17:48:31.477Z,98691.22
2023-03-07T17:53:41.759Z,98688.66
2023-03-07T17:58:50.484Z,98680.16
2023-03-07T18:03:59.200Z,98676.78
2023-03-07T18:09:10.715Z,98667.28
2023-03-07T18:14:20.141Z,98664.75
2023-03-07T18:19:29.380Z,98663.78
2023-03-07T18:24:44.703Z,98656.88
2023-03-07T18:29:53.290Z,98656.00
2023-03-07T18:35:03.517Z,98651.72
2023-03-07T18:40:16.484Z,98650.75
2023-03-07T18:45:27.246Z,98647.28
2023-03-07T18:50:36.337Z,98645.53
2023-03-07T18:55:48.888Z,98637.84
2023-03-07T19:00:59.154Z,98635.31
2023-03-07T19:06:09.180Z,98630.22
2023-03-07T19:11:24.973Z,98638.78
2023-03-07T19:16:40.003Z,98627.63
2023-03-07T19:21:49.189Z,98621.63
2023-03-07T19:27:06.064Z,98612.09
2023-03-07T19:32:18.871Z,98602.56
2023-03-07T19:37:30.275Z,98597.38
2023-03-07T19:42:41.779Z,98597.25
2023-03-07T19:47:52.789Z,98589.53
2023-03-07T19:53:06.654Z,98594.59
2023-03-07T19:58:21.482Z,98592.84
2023-03-07T20:03:32.916Z,98593.69
2023-03-07T20:08:44.065Z,98587.66
2023-03-07T20:13:58.600Z,98591.09
2023-03-07T20:19:12.613Z,98575.50
2023-03-07T20:24:22.457Z,98572.03
2023-03-07T20:29:33.366Z,98574.59
2023-03-07T20:34:46.086Z,98568.53
2023-03-07T20:40:04.772Z,98578.84
2023-03-07T20:45:16.851Z,98571.25
2023-03-07T20:50:29.754Z,98584.91
2023-03-07T20:55:40.324Z,98574.59
2023-03-07T21:00:58.015Z,98591.75
2023-03-07T21:06:09.201Z,98602.03
2023-03-07T21:11:21.694Z,98608.84
2023-03-07T21:16:38.083Z,98628.56
2023-03-07T21:21:50.040Z,98677.63
2023-03-07T21:26:59.204Z,98699.44
2023-03-07T21:32:10.691Z,98713.69
2023-03-07T21:37:18.706Z,98725.38
2023-03-07T21:42:26.164Z,98733.53
2023-03-07T21:47:35.588Z,98757.06
2023-03-07T21:52:43.682Z,98763.34
2023-03-07T21:57:51.032Z,98767.88
2023-03-07T22:02:59.235Z,98760.28
2023-03-07T22:08:06.180Z,98775.13
2023-03-07T22:13:12.996Z,98777.75
2023-03-07T22:18:20.888Z,98778.72
2023-03-07T22:23:28.135Z,98775.34
2023-03-07T22:28:35.618Z,98781.44
2023-03-07T22:33:43.949Z,98774.66
2023-03-07T22:38:55.851Z,98771.34
2023-03-07T22:44:02.604Z,98765.41
2023-03-07T22:49:12.918Z,98768.03
2023-03-07T22:54:19.149Z,98773.19
2023-03-07T22:59:25.584Z,98769.88
2023-03-07T23:04:33.505Z,98777.63
2023-03-07T23:09:39.894Z,98774.19
2023-03-07T23:14:47.654Z,98780.25
2023-03-07T23:19:55.663Z,98781.97
2023-03-07T23:25:02.232Z,98788.06
2023-03-07T23:30:09.885Z,98794.94
2023-03-07T23:35:18.060Z,98802.66
2023-03-07T23:40:25.217Z,98782.22
2023-03-07T23:45:32.066Z,98785.66
2023-03-07T23:50:39.935Z,98795.91
2023-03-07T23:55:47.443Z,98818.16
